aviador You're here:

KSTL Decoded Metar

ST. LOUIS in MO, USA
Report Time2018-05-21 23:51:00
UTC Time2018-05-22 00:24:15
Flight Rules vfr VFR
Wind170° at 08 kt
W.Decomp.*RWY 12: 5.0 kt HW 6.2 kt RCW
RWY 11: 3.9 kt HW 7.0 kt RCW
RWY 24: 2.9 kt HW 7.5 kt LCW
W.Rank170° ranks 1
Current wind is below 170° avg. (8.4)
Visibility9999 m
Phenomena:N/A
Clouds:Scattered 031 Hf
Broken 250 Hf
Expected CloudBase > 2,000 ft AGL from Temp-Dew spread
Ceiling25,000 ft
Temp26°C (ISA +12)
Dew Point21°C (74% RH)
QNH1015 hPa
Density Alt2,224 ft
Elevation561 ft
Report Wrong Elevation
Raw Report
KSTL 212351Z 17008KT 10SM SCT031 BKN250 26/21 A2997 RMK AO2 SLP140
T02610211 10272 20244 56012=

Extra information for KSTL:More info

Metar Taf Metar & Taf Last 4 Metars F.Rules Stats Wind Profile Meteogram Temp Stats Airport Information Weather charts Add Link Nearby VenuesMetar ALERT Operation Metar Decoded Social comments

AIRNAV info for KSTL